createdAt,value
2022-11-27T00:01:21.408Z,167.27
2022-11-27T00:03:48.521Z,165.90
2022-11-27T00:06:17.931Z,154.18
2022-11-27T00:08:46.069Z,157.45
2022-11-27T00:11:15.492Z,154.18
2022-11-27T00:13:42.902Z,154.25
2022-11-27T00:16:10.102Z,152.65
2022-11-27T00:18:37.050Z,150.85
2022-11-27T00:21:05.132Z,162.65
2022-11-27T00:23:33.086Z,157.55
2022-11-27T00:25:59.719Z,176.32
2022-11-27T00:28:26.583Z,151.77
2022-11-27T00:30:53.237Z,156.10
2022-11-27T00:33:19.893Z,151.98
2022-11-27T00:35:46.636Z,161.27
2022-11-27T00:38:13.267Z,149.32
2022-11-27T00:40:39.903Z,151.57
2022-11-27T00:43:06.670Z,153.60
2022-11-27T00:45:33.542Z,161.02
2022-11-27T00:48:00.215Z,160.23
2022-11-27T00:50:26.888Z,154.23
2022-11-27T00:52:53.481Z,147.55
2022-11-27T00:55:20.226Z,155.23
2022-11-27T00:57:46.856Z,158.45
2022-11-27T01:00:14.245Z,154.30
2022-11-27T01:02:40.959Z,143.75
2022-11-27T01:05:08.137Z,163.65
2022-11-27T01:07:34.897Z,152.95
2022-11-27T01:10:01.654Z,159.10
2022-11-27T01:12:28.438Z,148.27
2022-11-27T01:14:55.084Z,157.18
2022-11-27T01:17:21.730Z,145.90
2022-11-27T01:19:48.439Z,148.48
2022-11-27T01:22:15.113Z,150.65
2022-11-27T01:24:44.642Z,157.65
2022-11-27T01:27:11.479Z,152.40
2022-11-27T01:29:38.087Z,162.20
2022-11-27T01:32:04.980Z,166.05
2022-11-27T01:34:31.675Z,157.80
2022-11-27T01:36:58.318Z,157.43
2022-11-27T01:39:24.950Z,152.88
2022-11-27T01:41:51.740Z,161.45
2022-11-27T01:44:24.363Z,155.15
2022-11-27T01:46:59.125Z,158.65
2022-11-27T01:49:29.378Z,159.18
2022-11-27T01:52:19.320Z,152.15
2022-11-27T01:54:56.832Z,151.68
2022-11-27T01:58:07.967Z,160.07
2022-11-27T02:00:34.675Z,153.95
2022-11-27T02:03:01.548Z,157.55
2022-11-27T02:05:29.513Z,155.25
2022-11-27T02:07:59.416Z,164.77
2022-11-27T02:10:46.530Z,160.73
2022-11-27T02:13:18.237Z,144.70
2022-11-27T02:15:58.486Z,145.13
2022-11-27T02:18:42.911Z,158.30
2022-11-27T02:21:28.404Z,160.60
2022-11-27T02:24:26.839Z,150.38
2022-11-27T02:27:22.222Z,148.05
2022-11-27T02:29:54.416Z,141.98
2022-11-27T02:32:35.550Z,157.20
2022-11-27T02:35:14.362Z,148.48
2022-11-27T02:37:48.994Z,147.15
2022-11-27T02:40:36.831Z,150.27
2022-11-27T02:43:10.742Z,152.68
2022-11-27T02:45:59.471Z,145.88
2022-11-27T02:48:33.586Z,150.95
2022-11-27T02:51:02.685Z,145.38
2022-11-27T02:53:38.617Z,155.10
2022-11-27T02:56:09.061Z,157.30
2022-11-27T02:58:37.464Z,149.95
2022-11-27T03:01:06.991Z,158.30
2022-11-27T03:03:39.795Z,146.25
2022-11-27T03:06:10.941Z,148.60
2022-11-27T03:08:40.548Z,145.98
2022-11-27T03:11:14.599Z,146.00
2022-11-27T03:13:45.635Z,147.02
2022-11-27T03:16:24.345Z,151.18
2022-11-27T03:19:09.071Z,146.77
2022-11-27T03:21:40.421Z,142.10
2022-11-27T03:24:08.935Z,139.38
2022-11-27T03:26:36.705Z,136.13
2022-11-27T03:29:07.276Z,145.50
2022-11-27T03:31:34.101Z,143.25
2022-11-27T03:34:01.921Z,150.70
2022-11-27T03:36:29.002Z,150.93
2022-11-27T03:38:56.017Z,143.55
2022-11-27T03:41:50.837Z,156.15
2022-11-27T03:44:22.510Z,138.50
2022-11-27T03:47:04.882Z,141.10
2022-11-27T03:49:48.986Z,147.60
2022-11-27T03:52:27.864Z,148.85
2022-11-27T03:55:37.234Z,140.15
2022-11-27T03:58:08.749Z,150.18
2022-11-27T04:00:40.534Z,151.32
2022-11-27T04:03:13.306Z,134.27
2022-11-27T04:05:40.267Z,138.35
2022-11-27T04:08:06.942Z,143.15
2022-11-27T04:10:33.680Z,146.40
2022-11-27T04:13:00.353Z,159.40
2022-11-27T04:15:27.010Z,142.60
2022-11-27T04:17:53.712Z,140.73
2022-11-27T04:20:20.490Z,136.98
2022-11-27T04:22:47.164Z,142.23
2022-11-27T04:25:13.844Z,137.45
2022-11-27T04:27:40.455Z,152.70
2022-11-27T04:30:08.025Z,139.02
2022-11-27T04:32:34.684Z,154.45
2022-11-27T04:35:01.384Z,166.02
2022-11-27T04:37:28.183Z,144.63
2022-11-27T04:39:54.812Z,157.57
2022-11-27T04:42:21.505Z,139.07
2022-11-27T04:44:48.166Z,144.55
2022-11-27T04:47:14.929Z,135.43
2022-11-27T04:49:41.697Z,141.02
2022-11-27T04:52:08.337Z,149.32
2022-11-27T04:54:34.981Z,149.18
2022-11-27T04:57:01.623Z,150.88
2022-11-27T04:59:28.300Z,137.13
2022-11-27T05:01:54.962Z,143.50
2022-11-27T05:04:22.718Z,140.88
2022-11-27T05:06:49.710Z,150.77
2022-11-27T05:09:19.441Z,138.18
2022-11-27T05:11:46.258Z,141.60
2022-11-27T05:14:16.773Z,145.25
2022-11-27T05:16:54.541Z,141.98
2022-11-27T05:19:22.685Z,146.25
2022-11-27T05:21:50.436Z,149.50
2022-11-27T05:24:18.593Z,132.88
2022-11-27T05:26:45.794Z,137.57
2022-11-27T05:29:13.251Z,136.23
2022-11-27T05:31:40.848Z,131.88
2022-11-27T05:34:08.200Z,146.60
2022-11-27T05:36:35.728Z,157.23
2022-11-27T05:39:04.471Z,137.15
2022-11-27T05:41:31.091Z,152.60
2022-11-27T05:43:57.699Z,143.10
2022-11-27T05:46:24.506Z,148.43
2022-11-27T05:48:51.754Z,133.48
2022-11-27T05:51:19.131Z,146.50
2022-11-27T05:53:46.326Z,144.00
2022-11-27T05:56:15.437Z,131.07
2022-11-27T05:58:43.779Z,136.43
2022-11-27T06:01:12.691Z,138.10
2022-11-27T06:03:39.445Z,129.52
2022-11-27T06:06:11.415Z,136.93
2022-11-27T06:08:38.862Z,144.15
2022-11-27T06:11:17.313Z,142.35
2022-11-27T06:13:44.607Z,141.30
2022-11-27T06:16:14.547Z,143.15
2022-11-27T06:18:41.264Z,136.30
2022-11-27T06:21:13.870Z,144.23
2022-11-27T06:23:41.796Z,146.73
2022-11-27T06:26:16.411Z,148.45
2022-11-27T06:28:43.161Z,139.38
2022-11-27T06:31:17.879Z,137.60
2022-11-27T06:33:48.649Z,150.43
2022-11-27T06:36:15.458Z,154.38
2022-11-27T06:38:42.696Z,139.20
2022-11-27T06:41:12.052Z,138.35
2022-11-27T06:43:39.489Z,149.25
2022-11-27T06:46:08.027Z,144.88
2022-11-27T06:48:35.303Z,136.73
2022-11-27T06:51:06.586Z,141.55
2022-11-27T06:53:38.250Z,129.88
2022-11-27T06:56:07.007Z,137.73
2022-11-27T06:58:33.708Z,152.82
2022-11-27T07:01:02.151Z,158.20
2022-11-27T07:03:29.017Z,151.23
2022-11-27T07:05:55.851Z,159.65
2022-11-27T07:08:22.622Z,152.32
2022-11-27T07:10:49.394Z,138.20
2022-11-27T07:13:16.221Z,144.20
2022-11-27T07:15:43.368Z,158.55
2022-11-27T07:18:11.500Z,173.95
2022-11-27T07:20:38.107Z,150.00
2022-11-27T07:23:04.762Z,175.00
2022-11-27T07:25:31.515Z,158.48
2022-11-27T07:27:58.309Z,163.75
2022-11-27T07:30:24.949Z,161.52
2022-11-27T07:32:51.637Z,147.40
2022-11-27T07:35:18.708Z,160.50
2022-11-27T07:37:45.322Z,161.10
2022-11-27T07:40:13.078Z,152.77
2022-11-27T07:42:41.506Z,151.88
2022-11-27T07:45:09.417Z,169.05
2022-11-27T07:47:36.721Z,153.40
2022-11-27T07:50:04.417Z,170.93
2022-11-27T07:52:31.176Z,153.00
2022-11-27T07:54:57.801Z,158.10
2022-11-27T07:57:24.490Z,149.30
2022-11-27T07:59:51.116Z,152.40
2022-11-27T08:02:17.870Z,162.20
2022-11-27T08:04:44.790Z,159.48
2022-11-27T08:07:11.677Z,160.75
2022-11-27T08:09:40.001Z,163.15
2022-11-27T08:12:07.258Z,159.90
2022-11-27T08:14:33.883Z,162.18
2022-11-27T08:17:00.502Z,157.27
2022-11-27T08:19:27.342Z,165.15
2022-11-27T08:21:53.987Z,163.25
2022-11-27T08:24:20.687Z,151.32
2022-11-27T08:26:47.297Z,157.23
2022-11-27T08:29:13.956Z,162.38
2022-11-27T08:31:40.795Z,153.82
2022-11-27T08:34:07.447Z,166.68
2022-11-27T08:36:34.130Z,164.07
2022-11-27T08:39:00.762Z,148.70
2022-11-27T08:41:27.417Z,163.65
2022-11-27T08:43:54.049Z,168.05
2022-11-27T08:46:20.701Z,164.68
2022-11-27T08:48:47.403Z,156.27
2022-11-27T08:51:15.701Z,151.40
2022-11-27T08:53:45.263Z,156.23
2022-11-27T08:56:23.578Z,145.07
2022-11-27T08:58:50.562Z,151.55
2022-11-27T09:01:23.904Z,154.55
2022-11-27T09:03:50.838Z,167.93
2022-11-27T09:06:21.437Z,154.90
2022-11-27T09:08:48.695Z,153.40
2022-11-27T09:11:17.866Z,149.70
2022-11-27T09:13:45.435Z,152.93
2022-11-27T09:16:15.419Z,156.32
2022-11-27T09:18:45.773Z,159.80
2022-11-27T09:21:14.487Z,163.57
2022-11-27T09:23:41.372Z,148.50
2022-11-27T09:26:11.468Z,167.43
2022-11-27T09:28:39.094Z,155.90
2022-11-27T09:31:07.989Z,165.02
2022-11-27T09:33:38.214Z,166.63
2022-11-27T09:36:19.454Z,167.27
2022-11-27T09:38:46.216Z,150.27
2022-11-27T09:41:18.836Z,157.65
2022-11-27T09:43:56.968Z,158.07
2022-11-27T09:46:31.863Z,157.25
2022-11-27T09:49:03.419Z,160.02
2022-11-27T09:51:39.793Z,158.50
2022-11-27T09:56:56.115Z,153.20
2022-11-27T09:59:29.763Z,158.23
2022-11-27T10:01:57.150Z,158.15
2022-11-27T10:04:25.303Z,168.40
2022-11-27T10:07:13.417Z,166.02
2022-11-27T10:10:15.464Z,166.32
2022-11-27T10:13:07.364Z,164.98
2022-11-27T10:15:34.000Z,161.05
2022-11-27T10:18:15.182Z,158.52
2022-11-27T10:20:49.605Z,162.48
2022-11-27T10:23:53.770Z,158.88
2022-11-27T10:26:28.103Z,159.73
2022-11-27T10:29:25.359Z,161.13
2022-11-27T10:31:54.831Z,166.60
2022-11-27T10:34:43.503Z,186.82
2022-11-27T10:37:33.792Z,190.75
2022-11-27T10:40:19.063Z,201.93
2022-11-27T10:43:09.857Z,212.30
2022-11-27T10:45:49.521Z,213.82
2022-11-27T10:48:16.899Z,197.73
2022-11-27T10:50:45.296Z,199.95
2022-11-27T10:53:30.741Z,201.13
2022-11-27T10:56:21.419Z,198.60
2022-11-27T10:58:57.627Z,200.07
2022-11-27T11:04:24.697Z,207.55
2022-11-27T11:06:55.381Z,202.13
2022-11-27T11:09:25.888Z,196.70
2022-11-27T11:11:52.972Z,208.75
2022-11-27T11:14:25.082Z,203.07
2022-11-27T11:16:53.509Z,194.25
2022-11-27T11:19:35.788Z,199.27
2022-11-27T11:22:14.826Z,197.07
2022-11-27T11:24:47.438Z,192.73
2022-11-27T11:27:35.854Z,196.02
2022-11-27T11:30:07.840Z,193.93
2022-11-27T11:32:40.252Z,184.30
2022-11-27T11:35:24.804Z,185.75
2022-11-27T11:37:52.693Z,187.77
2022-11-27T11:40:26.917Z,204.27
2022-11-27T11:43:00.426Z,207.65
2022-11-27T11:45:32.644Z,192.80
2022-11-27T11:48:03.084Z,199.90
2022-11-27T11:50:51.905Z,199.80
2022-11-27T11:53:27.557Z,189.73
2022-11-27T11:56:18.759Z,188.30
2022-11-27T11:59:03.900Z,185.93
2022-11-27T12:01:54.242Z,194.68
2022-11-27T12:04:49.164Z,200.15
2022-11-27T12:07:27.892Z,190.02
2022-11-27T12:10:03.547Z,195.93
2022-11-27T12:12:58.338Z,189.35
2022-11-27T12:15:43.657Z,180.63
2022-11-27T12:18:25.430Z,197.30
2022-11-27T12:21:10.434Z,198.00
2022-11-27T12:23:49.839Z,192.70
2022-11-27T12:26:31.012Z,192.70
2022-11-27T12:29:22.065Z,190.00
2022-11-27T12:32:07.483Z,187.88
2022-11-27T12:35:13.107Z,182.93
2022-11-27T12:37:54.959Z,181.70
2022-11-27T12:40:24.702Z,190.25
2022-11-27T12:43:13.269Z,177.55
2022-11-27T12:46:02.600Z,175.45
2022-11-27T12:48:40.888Z,173.63
2022-11-27T12:51:16.747Z,185.30
2022-11-27T12:53:49.453Z,182.43
2022-11-27T12:56:22.564Z,178.77
2022-11-27T12:58:55.866Z,179.10
2022-11-27T13:01:43.894Z,171.93
2022-11-27T13:04:19.278Z,179.25
2022-11-27T13:06:58.248Z,175.70
2022-11-27T13:09:36.019Z,176.02
2022-11-27T13:12:03.582Z,190.82
2022-11-27T13:14:34.468Z,200.13
2022-11-27T13:17:05.706Z,189.82
2022-11-27T13:19:36.004Z,176.65
2022-11-27T13:22:10.173Z,180.77
2022-11-27T13:24:37.145Z,175.48
2022-11-27T13:27:09.916Z,174.80
2022-11-27T13:29:45.380Z,184.95
2022-11-27T13:32:29.329Z,184.95
2022-11-27T13:34:59.913Z,171.77
2022-11-27T13:37:26.559Z,175.63
2022-11-27T13:40:05.171Z,181.75
2022-11-27T13:42:35.935Z,167.93
2022-11-27T13:45:11.452Z,180.98
2022-11-27T13:47:43.244Z,175.25
2022-11-27T13:50:13.445Z,175.25
2022-11-27T13:53:04.375Z,170.30
2022-11-27T13:55:36.577Z,178.75
2022-11-27T13:58:04.815Z,169.55
2022-11-27T14:00:38.255Z,179.05
2022-11-27T14:03:06.800Z,173.68
2022-11-27T14:05:37.634Z,176.57
2022-11-27T14:08:16.544Z,169.40
2022-11-27T14:11:11.802Z,176.35
2022-11-27T14:13:51.498Z,167.85
2022-11-27T14:16:34.776Z,170.65
2022-11-27T14:19:04.434Z,172.88
2022-11-27T14:21:40.932Z,172.05
2022-11-27T14:24:24.127Z,168.65
2022-11-27T14:26:51.348Z,171.77
2022-11-27T14:29:20.943Z,171.50
2022-11-27T14:32:00.228Z,178.80
2022-11-27T14:34:32.208Z,173.70
2022-11-27T14:37:00.504Z,178.35
2022-11-27T14:39:33.219Z,170.27
2022-11-27T14:42:02.537Z,175.40
2022-11-27T14:44:29.369Z,174.52
2022-11-27T14:46:58.869Z,174.35
2022-11-27T14:49:27.913Z,178.05
2022-11-27T14:51:58.607Z,178.88
2022-11-27T14:54:37.996Z,178.48
2022-11-27T14:57:06.069Z,180.57
2022-11-27T14:59:32.830Z,177.68
2022-11-27T15:02:17.184Z,190.35
2022-11-27T15:04:46.648Z,182.18
2022-11-27T15:07:20.674Z,179.50
2022-11-27T15:09:54.655Z,183.50
2022-11-27T15:12:30.942Z,192.10
2022-11-27T15:17:39.407Z,175.20
2022-11-27T15:20:35.909Z,179.45
2022-11-27T15:23:03.374Z,177.30
2022-11-27T15:25:35.817Z,178.60
2022-11-27T15:28:02.672Z,171.45
2022-11-27T15:30:29.499Z,181.10
2022-11-27T15:32:56.296Z,188.90
2022-11-27T15:35:36.272Z,198.70
2022-11-27T15:38:10.703Z,216.00
2022-11-27T15:40:40.319Z,215.15
2022-11-27T15:43:16.454Z,202.30
2022-11-27T15:48:15.881Z,210.23
2022-11-27T15:50:46.836Z,218.82
2022-11-27T15:53:17.944Z,209.73
2022-11-27T15:55:44.891Z,204.20
2022-11-27T15:58:11.706Z,201.13
2022-11-27T16:00:38.435Z,201.65
2022-11-27T16:03:05.149Z,190.13
2022-11-27T16:05:31.874Z,209.85
2022-11-27T16:07:58.650Z,189.70
2022-11-27T16:10:25.478Z,184.55
2022-11-27T16:12:55.247Z,185.75
2022-11-27T16:15:23.534Z,186.43
2022-11-27T16:17:51.716Z,185.35
2022-11-27T16:20:18.358Z,185.50
2022-11-27T16:22:45.073Z,170.55
2022-11-27T16:25:14.717Z,180.00
2022-11-27T16:27:42.073Z,180.13
2022-11-27T16:30:09.637Z,181.35
2022-11-27T16:32:40.291Z,190.05
2022-11-27T16:35:08.224Z,175.57
2022-11-27T16:37:35.110Z,176.25
2022-11-27T16:40:02.328Z,181.35
2022-11-27T16:42:29.754Z,179.88
2022-11-27T16:44:56.455Z,177.63
2022-11-27T16:47:23.141Z,173.27
2022-11-27T16:49:50.202Z,178.00
2022-11-27T16:52:17.188Z,184.18
2022-11-27T16:54:44.183Z,169.13
2022-11-27T16:57:11.264Z,179.77
2022-11-27T16:59:38.446Z,175.50
2022-11-27T17:02:05.634Z,178.18
2022-11-27T17:04:32.317Z,175.32
2022-11-27T17:07:00.286Z,184.68
2022-11-27T17:09:29.395Z,175.48
2022-11-27T17:11:56.153Z,173.43
2022-11-27T17:14:27.284Z,180.82
2022-11-27T17:16:54.046Z,176.95
2022-11-27T17:19:23.434Z,189.57
2022-11-27T17:21:50.167Z,177.75
2022-11-27T17:24:17.514Z,178.82
2022-11-27T17:26:47.006Z,186.68
2022-11-27T17:29:17.137Z,180.82
2022-11-27T17:31:44.316Z,183.73
2022-11-27T17:34:13.340Z,180.40
2022-11-27T17:36:42.975Z,186.02
2022-11-27T17:39:13.251Z,183.15
2022-11-27T17:41:41.071Z,193.73
2022-11-27T17:44:08.342Z,188.10
2022-11-27T17:46:36.335Z,197.85
2022-11-27T17:49:07.072Z,182.90
2022-11-27T17:51:35.440Z,201.02
2022-11-27T17:54:03.345Z,191.57
2022-11-27T17:56:31.465Z,186.05
2022-11-27T17:58:59.933Z,187.38
2022-11-27T18:01:29.219Z,201.20
2022-11-27T18:04:01.043Z,178.52
2022-11-27T18:06:30.913Z,189.00
2022-11-27T18:08:58.991Z,193.63
2022-11-27T18:11:28.758Z,188.13
2022-11-27T18:13:58.669Z,184.70
2022-11-27T18:16:32.518Z,178.73
2022-11-27T18:19:04.400Z,180.60
2022-11-27T18:21:31.298Z,184.00
2022-11-27T18:29:33.576Z,186.90
2022-11-27T18:32:00.244Z,187.90
2022-11-27T18:34:26.938Z,185.60
2022-11-27T18:36:57.359Z,193.27
2022-11-27T18:39:24.051Z,179.02
2022-11-27T18:41:50.735Z,180.25
2022-11-27T18:44:17.393Z,202.18
2022-11-27T18:46:43.998Z,183.85
2022-11-27T18:49:10.675Z,185.90
2022-11-27T18:51:37.386Z,201.45
2022-11-27T18:54:04.097Z,193.10
2022-11-27T18:56:32.459Z,196.35
2022-11-27T18:59:05.104Z,199.15
2022-11-27T19:01:41.264Z,211.30
2022-11-27T19:06:37.150Z,198.40
2022-11-27T19:09:04.857Z,216.43
2022-11-27T19:11:32.857Z,219.80
2022-11-27T19:14:00.122Z,229.85
2022-11-27T19:16:31.218Z,226.38
2022-11-27T19:18:59.556Z,217.48
2022-11-27T19:21:30.914Z,223.57
2022-11-27T19:23:59.889Z,231.10
2022-11-27T19:26:33.376Z,231.32
2022-11-27T19:29:02.920Z,238.82
2022-11-27T19:31:37.687Z,244.43
2022-11-27T19:34:06.680Z,224.15
2022-11-27T19:36:35.445Z,218.80
2022-11-27T19:39:06.985Z,223.52
2022-11-27T19:41:34.496Z,224.10
2022-11-27T19:44:03.582Z,217.60
2022-11-27T19:46:32.719Z,211.18
2022-11-27T19:49:01.801Z,203.70
2022-11-27T19:51:33.143Z,207.73
2022-11-27T19:54:04.543Z,204.38
2022-11-27T19:56:37.426Z,198.13
2022-11-27T19:59:04.849Z,197.38
2022-11-27T20:01:32.104Z,195.88
2022-11-27T20:03:59.038Z,193.20
2022-11-27T20:06:27.895Z,192.48
2022-11-27T20:09:00.476Z,195.75
2022-11-27T20:11:34.243Z,212.30
2022-11-27T20:14:04.414Z,186.50
2022-11-27T20:16:33.372Z,192.73
2022-11-27T20:19:02.230Z,198.80
2022-11-27T20:21:28.885Z,202.60
2022-11-27T20:23:57.551Z,187.90
2022-11-27T20:26:27.272Z,200.25
2022-11-27T20:28:54.651Z,193.98
2022-11-27T20:31:36.098Z,184.10
2022-11-27T20:34:05.649Z,192.38
2022-11-27T20:36:35.342Z,197.63
2022-11-27T20:39:02.439Z,194.20
2022-11-27T20:41:29.872Z,191.45
2022-11-27T20:43:59.200Z,179.93
2022-11-27T20:46:26.847Z,186.70
2022-11-27T20:48:56.169Z,191.98
2022-11-27T20:51:28.474Z,185.77
2022-11-27T20:53:58.171Z,191.80
2022-11-27T20:56:25.372Z,183.05
2022-11-27T20:58:52.404Z,187.20
2022-11-27T21:01:31.311Z,195.38
2022-11-27T21:04:00.428Z,179.73
2022-11-27T21:06:30.704Z,183.60
2022-11-27T21:09:01.629Z,175.80
2022-11-27T21:11:31.545Z,185.10
2022-11-27T21:14:01.338Z,169.95
2022-11-27T21:16:30.522Z,188.10
2022-11-27T21:18:59.664Z,186.30
2022-11-27T21:21:27.223Z,183.05
2022-11-27T21:23:54.275Z,167.68
2022-11-27T21:26:21.432Z,170.27
2022-11-27T21:28:48.361Z,169.10
2022-11-27T21:31:18.703Z,169.98
2022-11-27T21:33:47.377Z,175.60
2022-11-27T21:36:14.392Z,177.15
2022-11-27T21:38:41.085Z,167.65
2022-11-27T21:41:08.286Z,172.70
2022-11-27T21:43:34.993Z,159.73
2022-11-27T21:46:17.244Z,170.32
2022-11-27T21:48:48.340Z,172.63
2022-11-27T21:51:16.170Z,187.73
2022-11-27T21:53:45.554Z,176.98
2022-11-27T21:56:14.830Z,185.07
2022-11-27T21:58:43.011Z,167.82
2022-11-27T22:01:12.816Z,183.32
2022-11-27T22:03:42.777Z,172.65
2022-11-27T22:06:12.819Z,181.90
2022-11-27T22:08:40.549Z,173.18
2022-11-27T22:11:09.507Z,164.90
2022-11-27T22:13:38.222Z,168.95
2022-11-27T22:16:14.694Z,166.18
2022-11-27T22:18:41.880Z,175.85
2022-11-27T22:21:11.024Z,175.50
2022-11-27T22:23:38.528Z,179.88
2022-11-27T22:26:07.656Z,164.52
2022-11-27T22:28:36.096Z,165.52
2022-11-27T22:31:19.981Z,172.23
2022-11-27T22:33:47.739Z,162.00
2022-11-27T22:36:16.871Z,163.90
2022-11-27T22:38:48.491Z,164.30
2022-11-27T22:41:16.283Z,158.68
2022-11-27T22:43:43.387Z,161.13
2022-11-27T22:46:16.436Z,160.38
2022-11-27T22:48:43.664Z,165.95
2022-11-27T22:51:10.408Z,175.77
2022-11-27T22:53:37.863Z,170.23
2022-11-27T22:56:10.641Z,159.20
2022-11-27T22:58:41.393Z,165.80
2022-11-27T23:01:21.566Z,176.35
2022-11-27T23:03:48.369Z,178.02
2022-11-27T23:06:17.336Z,173.13
2022-11-27T23:08:45.877Z,172.02
2022-11-27T23:11:21.440Z,162.32
2022-11-27T23:13:49.926Z,170.70
2022-11-27T23:16:18.420Z,172.25
2022-11-27T23:18:45.667Z,168.85
2022-11-27T23:21:18.824Z,174.32
2022-11-27T23:23:46.064Z,171.45
2022-11-27T23:26:18.144Z,169.63
2022-11-27T23:28:46.169Z,173.38
2022-11-27T23:31:29.344Z,179.55
2022-11-27T23:33:56.394Z,168.93
2022-11-27T23:36:23.077Z,179.93
2022-11-27T23:38:49.750Z,172.10
2022-11-27T23:41:22.127Z,173.82
2022-11-27T23:43:49.481Z,176.35
2022-11-27T23:46:18.052Z,185.10
2022-11-27T23:48:44.962Z,174.55
2022-11-27T23:51:13.811Z,180.23
2022-11-27T23:53:41.250Z,173.55
2022-11-27T23:56:11.183Z,171.35
2022-11-27T23:58:41.121Z,179.43
